sensor_id;sensor_type;location;lat;lon;timestamp;P1;durP1;ratioP1;P2;durP2;ratioP2
16731;SDS011;8484;50.904;9.192;2022-08-25T00:01:32;2.27;;;1.20;;
16731;SDS011;8484;50.904;9.192;2022-08-25T00:04:02;3.80;;;1.30;;
16731;SDS011;8484;50.904;9.192;2022-08-25T00:06:30;3.43;;;1.10;;
16731;SDS011;8484;50.904;9.192;2022-08-25T00:08:58;1.47;;;1.10;;
16731;SDS011;8484;50.904;9.192;2022-08-25T00:11:27;1.53;;;1.00;;
16731;SDS011;8484;50.904;9.192;2022-08-25T00:13:57;2.17;;;1.10;;
16731;SDS011;8484;50.904;9.192;2022-08-25T00:16:26;2.27;;;1.10;;
16731;SDS011;8484;50.904;9.192;2022-08-25T00:18:56;2.13;;;1.20;;
16731;SDS011;8484;50.904;9.192;2022-08-25T00:21:25;5.23;;;1.40;;
16731;SDS011;8484;50.904;9.192;2022-08-25T00:23:52;2.33;;;1.10;;
16731;SDS011;8484;50.904;9.192;2022-08-25T00:26:19;4.47;;;1.50;;
16731;SDS011;8484;50.904;9.192;2022-08-25T00:28:46;3.93;;;1.40;;
16731;SDS011;8484;50.904;9.192;2022-08-25T00:31:15;1.20;;;1.10;;
16731;SDS011;8484;50.904;9.192;2022-08-25T00:33:44;1.73;;;1.10;;
16731;SDS011;8484;50.904;9.192;2022-08-25T00:36:13;1.20;;;1.10;;
16731;SDS011;8484;50.904;9.192;2022-08-25T00:38:40;2.00;;;1.23;;
16731;SDS011;8484;50.904;9.192;2022-08-25T00:41:08;3.37;;;1.13;;
16731;SDS011;8484;50.904;9.192;2022-08-25T00:43:43;4.73;;;1.27;;
16731;SDS011;8484;50.904;9.192;2022-08-25T00:46:12;2.60;;;1.30;;
16731;SDS011;8484;50.904;9.192;2022-08-25T00:48:43;2.03;;;1.10;;
16731;SDS011;8484;50.904;9.192;2022-08-25T00:51:16;4.43;;;1.20;;
16731;SDS011;8484;50.904;9.192;2022-08-25T00:53:49;2.83;;;1.20;;
16731;SDS011;8484;50.904;9.192;2022-08-25T00:56:16;3.67;;;1.40;;
16731;SDS011;8484;50.904;9.192;2022-08-25T00:58:43;2.60;;;1.30;;
16731;SDS011;8484;50.904;9.192;2022-08-25T01:01:10;4.17;;;1.50;;
16731;SDS011;8484;50.904;9.192;2022-08-25T01:03:38;1.53;;;1.17;;
16731;SDS011;8484;50.904;9.192;2022-08-25T01:06:05;4.60;;;1.40;;
16731;SDS011;8484;50.904;9.192;2022-08-25T01:08:34;2.83;;;1.50;;
16731;SDS011;8484;50.904;9.192;2022-08-25T01:11:02;2.27;;;1.20;;
16731;SDS011;8484;50.904;9.192;2022-08-25T01:13:33;1.93;;;1.40;;
16731;SDS011;8484;50.904;9.192;2022-08-25T01:16:02;3.07;;;1.67;;
16731;SDS011;8484;50.904;9.192;2022-08-25T01:18:42;3.03;;;1.57;;
16731;SDS011;8484;50.904;9.192;2022-08-25T01:21:13;2.03;;;1.40;;
16731;SDS011;8484;50.904;9.192;2022-08-25T01:23:42;2.47;;;1.53;;
16731;SDS011;8484;50.904;9.192;2022-08-25T01:26:10;2.00;;;1.60;;
16731;SDS011;8484;50.904;9.192;2022-08-25T01:28:39;4.77;;;1.60;;
16731;SDS011;8484;50.904;9.192;2022-08-25T01:31:28;3.93;;;1.60;;
16731;SDS011;8484;50.904;9.192;2022-08-25T01:33:55;2.23;;;1.43;;
16731;SDS011;8484;50.904;9.192;2022-08-25T01:36:24;1.57;;;1.47;;
16731;SDS011;8484;50.904;9.192;2022-08-25T01:38:52;1.43;;;1.30;;
16731;SDS011;8484;50.904;9.192;2022-08-25T01:41:20;3.17;;;1.50;;
16731;SDS011;8484;50.904;9.192;2022-08-25T01:43:55;2.13;;;1.50;;
16731;SDS011;8484;50.904;9.192;2022-08-25T01:46:22;2.90;;;1.40;;
16731;SDS011;8484;50.904;9.192;2022-08-25T01:48:49;1.87;;;1.50;;
16731;SDS011;8484;50.904;9.192;2022-08-25T01:51:18;1.70;;;1.50;;
16731;SDS011;8484;50.904;9.192;2022-08-25T01:53:47;2.50;;;1.53;;
16731;SDS011;8484;50.904;9.192;2022-08-25T01:56:15;2.20;;;1.60;;
16731;SDS011;8484;50.904;9.192;2022-08-25T01:58:43;2.73;;;1.60;;
16731;SDS011;8484;50.904;9.192;2022-08-25T02:01:12;1.90;;;1.53;;
16731;SDS011;8484;50.904;9.192;2022-08-25T02:03:42;3.73;;;1.67;;
16731;SDS011;8484;50.904;9.192;2022-08-25T02:06:11;3.07;;;1.60;;
16731;SDS011;8484;50.904;9.192;2022-08-25T02:08:40;2.00;;;1.70;;
16731;SDS011;8484;50.904;9.192;2022-08-25T02:11:10;3.43;;;1.80;;
16731;SDS011;8484;50.904;9.192;2022-08-25T02:13:38;3.47;;;1.70;;
16731;SDS011;8484;50.904;9.192;2022-08-25T02:16:06;3.40;;;1.47;;
16731;SDS011;8484;50.904;9.192;2022-08-25T02:18:34;2.73;;;1.80;;
16731;SDS011;8484;50.904;9.192;2022-08-25T02:21:01;4.13;;;1.73;;
16731;SDS011;8484;50.904;9.192;2022-08-25T02:23:28;2.30;;;1.90;;
16731;SDS011;8484;50.904;9.192;2022-08-25T02:25:55;2.20;;;1.80;;
16731;SDS011;8484;50.904;9.192;2022-08-25T02:28:24;3.70;;;1.57;;
16731;SDS011;8484;50.904;9.192;2022-08-25T02:30:51;4.67;;;1.77;;
16731;SDS011;8484;50.904;9.192;2022-08-25T02:33:18;3.87;;;1.50;;
16731;SDS011;8484;50.904;9.192;2022-08-25T02:35:45;2.17;;;1.50;;
16731;SDS011;8484;50.904;9.192;2022-08-25T02:38:11;2.60;;;1.70;;
16731;SDS011;8484;50.904;9.192;2022-08-25T02:40:39;3.90;;;1.60;;
16731;SDS011;8484;50.904;9.192;2022-08-25T02:43:06;2.00;;;1.60;;
16731;SDS011;8484;50.904;9.192;2022-08-25T02:45:34;3.23;;;1.80;;
16731;SDS011;8484;50.904;9.192;2022-08-25T02:48:01;7.03;;;1.60;;
16731;SDS011;8484;50.904;9.192;2022-08-25T02:50:29;4.03;;;1.50;;
16731;SDS011;8484;50.904;9.192;2022-08-25T02:52:56;3.13;;;1.73;;
16731;SDS011;8484;50.904;9.192;2022-08-25T02:55:23;1.60;;;1.50;;
16731;SDS011;8484;50.904;9.192;2022-08-25T02:57:49;1.53;;;1.37;;
16731;SDS011;8484;50.904;9.192;2022-08-25T03:00:16;2.33;;;2.00;;
16731;SDS011;8484;50.904;9.192;2022-08-25T03:02:45;3.70;;;1.67;;
16731;SDS011;8484;50.904;9.192;2022-08-25T03:05:12;3.23;;;1.53;;
16731;SDS011;8484;50.904;9.192;2022-08-25T03:07:40;2.13;;;1.73;;
16731;SDS011;8484;50.904;9.192;2022-08-25T03:10:08;2.73;;;1.90;;
16731;SDS011;8484;50.904;9.192;2022-08-25T03:12:37;2.00;;;1.77;;
16731;SDS011;8484;50.904;9.192;2022-08-25T03:15:06;2.37;;;1.60;;
16731;SDS011;8484;50.904;9.192;2022-08-25T03:17:33;3.97;;;1.80;;
16731;SDS011;8484;50.904;9.192;2022-08-25T03:20:01;2.23;;;1.60;;
16731;SDS011;8484;50.904;9.192;2022-08-25T03:22:29;2.50;;;1.80;;
16731;SDS011;8484;50.904;9.192;2022-08-25T03:24:56;3.10;;;2.00;;
16731;SDS011;8484;50.904;9.192;2022-08-25T03:27:44;2.03;;;1.70;;
16731;SDS011;8484;50.904;9.192;2022-08-25T03:30:10;1.83;;;1.73;;
16731;SDS011;8484;50.904;9.192;2022-08-25T03:32:38;2.47;;;2.07;;
16731;SDS011;8484;50.904;9.192;2022-08-25T03:35:07;2.30;;;2.10;;
16731;SDS011;8484;50.904;9.192;2022-08-25T03:37:34;6.13;;;2.10;;
16731;SDS011;8484;50.904;9.192;2022-08-25T03:40:02;2.30;;;1.93;;
16731;SDS011;8484;50.904;9.192;2022-08-25T03:42:32;2.33;;;2.13;;
16731;SDS011;8484;50.904;9.192;2022-08-25T03:45:00;2.87;;;1.80;;
16731;SDS011;8484;50.904;9.192;2022-08-25T03:47:28;2.20;;;2.00;;
16731;SDS011;8484;50.904;9.192;2022-08-25T03:49:55;2.40;;;2.20;;
16731;SDS011;8484;50.904;9.192;2022-08-25T03:52:24;2.43;;;1.93;;
16731;SDS011;8484;50.904;9.192;2022-08-25T03:54:51;3.33;;;1.97;;
16731;SDS011;8484;50.904;9.192;2022-08-25T03:57:18;2.00;;;1.90;;
16731;SDS011;8484;50.904;9.192;2022-08-25T03:59:45;4.03;;;1.87;;
16731;SDS011;8484;50.904;9.192;2022-08-25T04:02:12;2.93;;;2.10;;
16731;SDS011;8484;50.904;9.192;2022-08-25T04:04:39;2.00;;;1.80;;
16731;SDS011;8484;50.904;9.192;2022-08-25T04:07:05;2.53;;;2.00;;
16731;SDS011;8484;50.904;9.192;2022-08-25T04:09:34;4.97;;;1.83;;
16731;SDS011;8484;50.904;9.192;2022-08-25T04:12:01;3.43;;;2.20;;
16731;SDS011;8484;50.904;9.192;2022-08-25T04:14:28;4.67;;;2.30;;
16731;SDS011;8484;50.904;9.192;2022-08-25T04:16:55;3.87;;;2.30;;
16731;SDS011;8484;50.904;9.192;2022-08-25T04:19:22;3.00;;;2.10;;
16731;SDS011;8484;50.904;9.192;2022-08-25T04:21:49;3.03;;;2.07;;
16731;SDS011;8484;50.904;9.192;2022-08-25T04:24:17;2.53;;;2.03;;
16731;SDS011;8484;50.904;9.192;2022-08-25T04:26:48;3.90;;;2.30;;
16731;SDS011;8484;50.904;9.192;2022-08-25T04:29:18;3.00;;;2.33;;
16731;SDS011;8484;50.904;9.192;2022-08-25T04:31:47;2.93;;;2.37;;
16731;SDS011;8484;50.904;9.192;2022-08-25T04:34:15;2.50;;;2.00;;
16731;SDS011;8484;50.904;9.192;2022-08-25T04:36:42;2.33;;;2.13;;
16731;SDS011;8484;50.904;9.192;2022-08-25T04:39:09;2.47;;;2.00;;
16731;SDS011;8484;50.904;9.192;2022-08-25T04:41:37;4.37;;;2.33;;
16731;SDS011;8484;50.904;9.192;2022-08-25T04:44:05;3.67;;;2.27;;
16731;SDS011;8484;50.904;9.192;2022-08-25T04:46:33;4.23;;;2.37;;
16731;SDS011;8484;50.904;9.192;2022-08-25T04:49:01;3.50;;;2.20;;
16731;SDS011;8484;50.904;9.192;2022-08-25T04:51:29;3.33;;;2.00;;
16731;SDS011;8484;50.904;9.192;2022-08-25T04:53:58;2.30;;;2.10;;
16731;SDS011;8484;50.904;9.192;2022-08-25T04:56:27;2.83;;;2.27;;
16731;SDS011;8484;50.904;9.192;2022-08-25T04:58:54;3.53;;;1.90;;
16731;SDS011;8484;50.904;9.192;2022-08-25T05:01:23;3.93;;;2.00;;
16731;SDS011;8484;50.904;9.192;2022-08-25T05:03:53;3.57;;;2.30;;
16731;SDS011;8484;50.904;9.192;2022-08-25T05:06:21;3.30;;;2.20;;
16731;SDS011;8484;50.904;9.192;2022-08-25T05:08:48;2.30;;;2.10;;
16731;SDS011;8484;50.904;9.192;2022-08-25T05:11:15;2.67;;;2.07;;
16731;SDS011;8484;50.904;9.192;2022-08-25T05:13:43;2.47;;;2.00;;
16731;SDS011;8484;50.904;9.192;2022-08-25T05:16:11;3.23;;;1.90;;
16731;SDS011;8484;50.904;9.192;2022-08-25T05:18:39;6.00;;;2.30;;
16731;SDS011;8484;50.904;9.192;2022-08-25T05:21:07;3.97;;;1.93;;
16731;SDS011;8484;50.904;9.192;2022-08-25T05:23:36;2.40;;;2.00;;
16731;SDS011;8484;50.904;9.192;2022-08-25T05:26:04;3.83;;;2.00;;
16731;SDS011;8484;50.904;9.192;2022-08-25T05:28:32;2.43;;;2.23;;
16731;SDS011;8484;50.904;9.192;2022-08-25T05:31:00;2.27;;;1.93;;
16731;SDS011;8484;50.904;9.192;2022-08-25T05:33:28;2.97;;;2.00;;
16731;SDS011;8484;50.904;9.192;2022-08-25T05:35:57;2.00;;;1.80;;
16731;SDS011;8484;50.904;9.192;2022-08-25T05:38:25;3.60;;;2.37;;
16731;SDS011;8484;50.904;9.192;2022-08-25T05:40:55;2.20;;;2.00;;
16731;SDS011;8484;50.904;9.192;2022-08-25T05:43:22;3.87;;;2.00;;
16731;SDS011;8484;50.904;9.192;2022-08-25T05:45:52;4.80;;;2.23;;
16731;SDS011;8484;50.904;9.192;2022-08-25T05:48:19;3.73;;;1.97;;
16731;SDS011;8484;50.904;9.192;2022-08-25T05:50:49;7.30;;;2.50;;
16731;SDS011;8484;50.904;9.192;2022-08-25T05:53:18;3.40;;;2.00;;
16731;SDS011;8484;50.904;9.192;2022-08-25T05:55:45;2.70;;;1.93;;
16731;SDS011;8484;50.904;9.192;2022-08-25T05:58:12;2.80;;;2.37;;
16731;SDS011;8484;50.904;9.192;2022-08-25T06:00:39;3.07;;;2.20;;
16731;SDS011;8484;50.904;9.192;2022-08-25T06:03:06;8.37;;;2.13;;
16731;SDS011;8484;50.904;9.192;2022-08-25T06:05:32;2.53;;;1.87;;
16731;SDS011;8484;50.904;9.192;2022-08-25T06:07:59;2.43;;;2.03;;
16731;SDS011;8484;50.904;9.192;2022-08-25T06:10:27;4.00;;;2.03;;
16731;SDS011;8484;50.904;9.192;2022-08-25T06:12:54;5.50;;;2.43;;
16731;SDS011;8484;50.904;9.192;2022-08-25T06:15:22;2.40;;;1.87;;
16731;SDS011;8484;50.904;9.192;2022-08-25T06:17:49;4.00;;;2.30;;
16731;SDS011;8484;50.904;9.192;2022-08-25T06:20:17;6.70;;;2.37;;
16731;SDS011;8484;50.904;9.192;2022-08-25T06:22:46;5.83;;;2.10;;
16731;SDS011;8484;50.904;9.192;2022-08-25T06:25:14;5.47;;;2.00;;
16731;SDS011;8484;50.904;9.192;2022-08-25T06:27:45;2.37;;;2.07;;
16731;SDS011;8484;50.904;9.192;2022-08-25T06:30:13;3.53;;;2.17;;
16731;SDS011;8484;50.904;9.192;2022-08-25T06:32:43;3.77;;;2.00;;
16731;SDS011;8484;50.904;9.192;2022-08-25T06:35:11;2.77;;;2.10;;
16731;SDS011;8484;50.904;9.192;2022-08-25T06:37:40;2.73;;;1.97;;
16731;SDS011;8484;50.904;9.192;2022-08-25T06:40:08;4.30;;;1.70;;
16731;SDS011;8484;50.904;9.192;2022-08-25T06:42:36;5.13;;;1.83;;
16731;SDS011;8484;50.904;9.192;2022-08-25T06:45:05;8.53;;;2.10;;
16731;SDS011;8484;50.904;9.192;2022-08-25T06:47:33;3.77;;;2.10;;
16731;SDS011;8484;50.904;9.192;2022-08-25T06:50:00;2.10;;;1.77;;
16731;SDS011;8484;50.904;9.192;2022-08-25T06:52:28;2.40;;;1.67;;
16731;SDS011;8484;50.904;9.192;2022-08-25T06:54:55;2.27;;;1.90;;
16731;SDS011;8484;50.904;9.192;2022-08-25T06:57:22;2.97;;;1.60;;
16731;SDS011;8484;50.904;9.192;2022-08-25T06:59:49;2.67;;;1.70;;
16731;SDS011;8484;50.904;9.192;2022-08-25T07:02:17;2.40;;;1.97;;
16731;SDS011;8484;50.904;9.192;2022-08-25T07:04:44;3.87;;;1.70;;
16731;SDS011;8484;50.904;9.192;2022-08-25T07:07:11;5.00;;;2.10;;
16731;SDS011;8484;50.904;9.192;2022-08-25T07:09:38;3.60;;;1.90;;
16731;SDS011;8484;50.904;9.192;2022-08-25T07:12:05;4.47;;;2.00;;
16731;SDS011;8484;50.904;9.192;2022-08-25T07:14:33;5.70;;;2.03;;
16731;SDS011;8484;50.904;9.192;2022-08-25T07:17:00;3.63;;;1.60;;
16731;SDS011;8484;50.904;9.192;2022-08-25T07:19:28;3.90;;;2.00;;
16731;SDS011;8484;50.904;9.192;2022-08-25T07:21:55;3.40;;;2.00;;
16731;SDS011;8484;50.904;9.192;2022-08-25T07:24:22;2.40;;;1.73;;
16731;SDS011;8484;50.904;9.192;2022-08-25T07:26:49;2.07;;;1.60;;
16731;SDS011;8484;50.904;9.192;2022-08-25T07:29:17;4.67;;;1.73;;
16731;SDS011;8484;50.904;9.192;2022-08-25T07:31:46;3.20;;;1.43;;
16731;SDS011;8484;50.904;9.192;2022-08-25T07:34:13;3.03;;;2.00;;
16731;SDS011;8484;50.904;9.192;2022-08-25T07:36:59;4.60;;;1.60;;
16731;SDS011;8484;50.904;9.192;2022-08-25T07:39:28;2.73;;;1.47;;
16731;SDS011;8484;50.904;9.192;2022-08-25T07:41:56;3.13;;;1.70;;
16731;SDS011;8484;50.904;9.192;2022-08-25T07:44:24;2.80;;;1.60;;
16731;SDS011;8484;50.904;9.192;2022-08-25T07:46:51;3.10;;;2.10;;
16731;SDS011;8484;50.904;9.192;2022-08-25T07:49:19;4.40;;;1.87;;
16731;SDS011;8484;50.904;9.192;2022-08-25T07:51:46;2.57;;;1.77;;
16731;SDS011;8484;50.904;9.192;2022-08-25T07:54:15;4.80;;;1.70;;
16731;SDS011;8484;50.904;9.192;2022-08-25T07:56:42;4.00;;;1.73;;
16731;SDS011;8484;50.904;9.192;2022-08-25T07:59:09;2.93;;;1.70;;
16731;SDS011;8484;50.904;9.192;2022-08-25T08:01:36;4.30;;;1.97;;
16731;SDS011;8484;50.904;9.192;2022-08-25T08:04:04;4.43;;;1.70;;
16731;SDS011;8484;50.904;9.192;2022-08-25T08:06:31;2.87;;;1.60;;
16731;SDS011;8484;50.904;9.192;2022-08-25T08:08:58;5.73;;;1.67;;
16731;SDS011;8484;50.904;9.192;2022-08-25T08:11:28;7.83;;;2.10;;
16731;SDS011;8484;50.904;9.192;2022-08-25T08:13:58;3.10;;;1.63;;
16731;SDS011;8484;50.904;9.192;2022-08-25T08:16:27;4.13;;;2.03;;
16731;SDS011;8484;50.904;9.192;2022-08-25T08:18:55;7.17;;;2.20;;
16731;SDS011;8484;50.904;9.192;2022-08-25T08:21:25;3.73;;;2.10;;
16731;SDS011;8484;50.904;9.192;2022-08-25T08:23:53;8.50;;;2.00;;
16731;SDS011;8484;50.904;9.192;2022-08-25T08:26:21;4.03;;;1.80;;
16731;SDS011;8484;50.904;9.192;2022-08-25T08:28:49;4.70;;;2.10;;
16731;SDS011;8484;50.904;9.192;2022-08-25T08:31:16;4.20;;;2.20;;
16731;SDS011;8484;50.904;9.192;2022-08-25T08:33:44;7.27;;;2.40;;
16731;SDS011;8484;50.904;9.192;2022-08-25T08:36:10;2.97;;;1.90;;
16731;SDS011;8484;50.904;9.192;2022-08-25T08:38:38;6.83;;;2.40;;
16731;SDS011;8484;50.904;9.192;2022-08-25T08:41:11;4.57;;;1.97;;
16731;SDS011;8484;50.904;9.192;2022-08-25T08:44:18;3.13;;;1.90;;
16731;SDS011;8484;50.904;9.192;2022-08-25T08:46:54;4.73;;;1.77;;
16731;SDS011;8484;50.904;9.192;2022-08-25T08:49:29;3.03;;;1.83;;
16731;SDS011;8484;50.904;9.192;2022-08-25T08:52:03;4.30;;;2.00;;
16731;SDS011;8484;50.904;9.192;2022-08-25T08:54:33;4.53;;;1.97;;
16731;SDS011;8484;50.904;9.192;2022-08-25T08:57:03;4.80;;;1.70;;
16731;SDS011;8484;50.904;9.192;2022-08-25T08:59:39;2.20;;;1.90;;
16731;SDS011;8484;50.904;9.192;2022-08-25T09:02:14;3.87;;;2.27;;
16731;SDS011;8484;50.904;9.192;2022-08-25T09:04:48;4.57;;;2.27;;
16731;SDS011;8484;50.904;9.192;2022-08-25T09:07:19;4.43;;;2.47;;
16731;SDS011;8484;50.904;9.192;2022-08-25T09:09:51;5.20;;;2.47;;
16731;SDS011;8484;50.904;9.192;2022-08-25T09:12:21;2.93;;;2.30;;
16731;SDS011;8484;50.904;9.192;2022-08-25T09:15:03;3.03;;;2.20;;
16731;SDS011;8484;50.904;9.192;2022-08-25T09:17:37;2.70;;;2.20;;
16731;SDS011;8484;50.904;9.192;2022-08-25T09:20:28;4.67;;;2.27;;
16731;SDS011;8484;50.904;9.192;2022-08-25T09:23:06;2.57;;;2.13;;
16731;SDS011;8484;50.904;9.192;2022-08-25T09:25:44;2.30;;;2.00;;
16731;SDS011;8484;50.904;9.192;2022-08-25T09:28:20;4.83;;;2.33;;
16731;SDS011;8484;50.904;9.192;2022-08-25T09:30:54;5.27;;;2.00;;
16731;SDS011;8484;50.904;9.192;2022-08-25T09:33:25;3.13;;;1.70;;
16731;SDS011;8484;50.904;9.192;2022-08-25T09:35:53;3.47;;;2.23;;
16731;SDS011;8484;50.904;9.192;2022-08-25T09:38:21;6.10;;;2.17;;
16731;SDS011;8484;50.904;9.192;2022-08-25T09:40:49;3.53;;;2.23;;
16731;SDS011;8484;50.904;9.192;2022-08-25T09:43:20;7.13;;;2.17;;
16731;SDS011;8484;50.904;9.192;2022-08-25T09:45:49;5.10;;;2.03;;
16731;SDS011;8484;50.904;9.192;2022-08-25T09:48:29;2.97;;;2.33;;
16731;SDS011;8484;50.904;9.192;2022-08-25T09:51:09;4.27;;;2.37;;
16731;SDS011;8484;50.904;9.192;2022-08-25T09:53:43;5.77;;;2.00;;
16731;SDS011;8484;50.904;9.192;2022-08-25T09:56:15;2.80;;;2.00;;
16731;SDS011;8484;50.904;9.192;2022-08-25T09:58:45;4.30;;;2.03;;
16731;SDS011;8484;50.904;9.192;2022-08-25T10:01:14;4.03;;;1.93;;
16731;SDS011;8484;50.904;9.192;2022-08-25T10:06:34;2.57;;;1.90;;
16731;SDS011;8484;50.904;9.192;2022-08-25T10:09:09;2.67;;;1.80;;
16731;SDS011;8484;50.904;9.192;2022-08-25T10:11:48;4.40;;;2.10;;
16731;SDS011;8484;50.904;9.192;2022-08-25T10:14:21;4.67;;;2.17;;
16731;SDS011;8484;50.904;9.192;2022-08-25T10:17:10;2.40;;;2.20;;
16731;SDS011;8484;50.904;9.192;2022-08-25T10:19:39;5.47;;;2.20;;
16731;SDS011;8484;50.904;9.192;2022-08-25T10:22:06;3.50;;;2.23;;
16731;SDS011;8484;50.904;9.192;2022-08-25T10:24:35;2.33;;;2.03;;
16731;SDS011;8484;50.904;9.192;2022-08-25T10:27:06;3.93;;;2.30;;
16731;SDS011;8484;50.904;9.192;2022-08-25T10:32:35;2.63;;;2.00;;
16731;SDS011;8484;50.904;9.192;2022-08-25T10:35:16;2.13;;;1.93;;
16731;SDS011;8484;50.904;9.192;2022-08-25T10:37:59;3.63;;;2.10;;
16731;SDS011;8484;50.904;9.192;2022-08-25T10:40:34;2.07;;;1.80;;
16731;SDS011;8484;50.904;9.192;2022-08-25T10:43:15;2.73;;;2.00;;
16731;SDS011;8484;50.904;9.192;2022-08-25T10:45:50;2.67;;;1.70;;
16731;SDS011;8484;50.904;9.192;2022-08-25T10:48:29;2.17;;;1.93;;
16731;SDS011;8484;50.904;9.192;2022-08-25T10:51:11;2.30;;;1.80;;
16731;SDS011;8484;50.904;9.192;2022-08-25T10:53:51;1.90;;;1.70;;
16731;SDS011;8484;50.904;9.192;2022-08-25T10:56:25;2.40;;;1.70;;
16731;SDS011;8484;50.904;9.192;2022-08-25T11:02:10;2.13;;;1.83;;
16731;SDS011;8484;50.904;9.192;2022-08-25T11:04:54;2.77;;;1.77;;
16731;SDS011;8484;50.904;9.192;2022-08-25T11:07:27;2.13;;;1.73;;
16731;SDS011;8484;50.904;9.192;2022-08-25T11:10:01;1.97;;;1.47;;
16731;SDS011;8484;50.904;9.192;2022-08-25T11:12:31;2.30;;;1.50;;
16731;SDS011;8484;50.904;9.192;2022-08-25T11:15:04;2.00;;;1.57;;
16731;SDS011;8484;50.904;9.192;2022-08-25T11:17:37;1.70;;;1.60;;
16731;SDS011;8484;50.904;9.192;2022-08-25T11:20:10;1.90;;;1.60;;
16731;SDS011;8484;50.904;9.192;2022-08-25T11:22:42;5.57;;;1.50;;
16731;SDS011;8484;50.904;9.192;2022-08-25T11:25:13;2.07;;;1.80;;
16731;SDS011;8484;50.904;9.192;2022-08-25T11:27:44;1.97;;;1.60;;
16731;SDS011;8484;50.904;9.192;2022-08-25T11:30:16;4.90;;;2.13;;
16731;SDS011;8484;50.904;9.192;2022-08-25T11:32:45;2.23;;;1.70;;
16731;SDS011;8484;50.904;9.192;2022-08-25T11:35:16;3.87;;;1.70;;
16731;SDS011;8484;50.904;9.192;2022-08-25T11:37:53;2.83;;;1.50;;
16731;SDS011;8484;50.904;9.192;2022-08-25T11:40:34;3.03;;;1.63;;
16731;SDS011;8484;50.904;9.192;2022-08-25T11:43:12;2.07;;;1.40;;
16731;SDS011;8484;50.904;9.192;2022-08-25T11:45:53;3.57;;;1.90;;
16731;SDS011;8484;50.904;9.192;2022-08-25T11:48:34;3.30;;;1.80;;
16731;SDS011;8484;50.904;9.192;2022-08-25T11:51:09;4.47;;;1.50;;
16731;SDS011;8484;50.904;9.192;2022-08-25T11:53:37;1.90;;;1.70;;
16731;SDS011;8484;50.904;9.192;2022-08-25T11:56:05;2.70;;;1.73;;
16731;SDS011;8484;50.904;9.192;2022-08-25T11:58:43;1.77;;;1.57;;
16731;SDS011;8484;50.904;9.192;2022-08-25T12:04:34;3.13;;;1.90;;
16731;SDS011;8484;50.904;9.192;2022-08-25T12:07:22;1.90;;;1.70;;
16731;SDS011;8484;50.904;9.192;2022-08-25T12:10:08;2.20;;;1.70;;
16731;SDS011;8484;50.904;9.192;2022-08-25T12:13:02;2.03;;;1.80;;
16731;SDS011;8484;50.904;9.192;2022-08-25T12:15:55;2.43;;;1.70;;
16731;SDS011;8484;50.904;9.192;2022-08-25T12:21:28;4.23;;;1.70;;
16731;SDS011;8484;50.904;9.192;2022-08-25T12:24:08;2.47;;;1.90;;
16731;SDS011;8484;50.904;9.192;2022-08-25T12:26:39;2.40;;;2.00;;
16731;SDS011;8484;50.904;9.192;2022-08-25T12:29:12;1.80;;;1.70;;
16731;SDS011;8484;50.904;9.192;2022-08-25T12:31:47;2.30;;;1.60;;
16731;SDS011;8484;50.904;9.192;2022-08-25T12:34:29;1.73;;;1.50;;
16731;SDS011;8484;50.904;9.192;2022-08-25T12:37:09;1.80;;;1.70;;
16731;SDS011;8484;50.904;9.192;2022-08-25T12:39:43;1.97;;;1.50;;
16731;SDS011;8484;50.904;9.192;2022-08-25T12:42:21;2.30;;;1.90;;
16731;SDS011;8484;50.904;9.192;2022-08-25T12:45:13;3.97;;;1.97;;
16731;SDS011;8484;50.904;9.192;2022-08-25T12:50:59;1.83;;;1.70;;
16731;SDS011;8484;50.904;9.192;2022-08-25T12:53:31;3.77;;;2.10;;
16731;SDS011;8484;50.904;9.192;2022-08-25T12:56:05;2.00;;;1.80;;
16731;SDS011;8484;50.904;9.192;2022-08-25T12:58:36;2.83;;;2.03;;
16731;SDS011;8484;50.904;9.192;2022-08-25T13:01:16;2.73;;;1.93;;
16731;SDS011;8484;50.904;9.192;2022-08-25T13:03:53;2.10;;;1.90;;
16731;SDS011;8484;50.904;9.192;2022-08-25T13:06:53;3.07;;;1.93;;
16731;SDS011;8484;50.904;9.192;2022-08-25T13:12:30;2.30;;;1.90;;
16731;SDS011;8484;50.904;9.192;2022-08-25T13:15:02;1.93;;;1.83;;
16731;SDS011;8484;50.904;9.192;2022-08-25T13:17:30;2.17;;;1.97;;
16731;SDS011;8484;50.904;9.192;2022-08-25T13:20:12;4.97;;;2.00;;
16731;SDS011;8484;50.904;9.192;2022-08-25T13:22:40;3.63;;;1.90;;
16731;SDS011;8484;50.904;9.192;2022-08-25T13:25:13;3.27;;;2.00;;
16731;SDS011;8484;50.904;9.192;2022-08-25T13:27:43;4.40;;;2.30;;
16731;SDS011;8484;50.904;9.192;2022-08-25T13:30:18;3.73;;;2.33;;
16731;SDS011;8484;50.904;9.192;2022-08-25T13:32:49;3.13;;;1.97;;
16731;SDS011;8484;50.904;9.192;2022-08-25T13:35:17;2.53;;;2.03;;
16731;SDS011;8484;50.904;9.192;2022-08-25T13:37:46;2.57;;;1.90;;
16731;SDS011;8484;50.904;9.192;2022-08-25T13:40:13;2.57;;;2.30;;
16731;SDS011;8484;50.904;9.192;2022-08-25T13:42:48;2.87;;;2.20;;
16731;SDS011;8484;50.904;9.192;2022-08-25T13:45:17;3.63;;;2.07;;
16731;SDS011;8484;50.904;9.192;2022-08-25T13:47:46;2.77;;;2.13;;
16731;SDS011;8484;50.904;9.192;2022-08-25T13:50:27;4.73;;;2.20;;
16731;SDS011;8484;50.904;9.192;2022-08-25T13:52:57;3.50;;;1.70;;
16731;SDS011;8484;50.904;9.192;2022-08-25T13:55:27;1.97;;;1.87;;
16731;SDS011;8484;50.904;9.192;2022-08-25T13:58:02;2.47;;;1.90;;
16731;SDS011;8484;50.904;9.192;2022-08-25T14:00:33;7.90;;;2.30;;
16731;SDS011;8484;50.904;9.192;2022-08-25T14:03:03;6.07;;;2.20;;
16731;SDS011;8484;50.904;9.192;2022-08-25T14:05:33;3.07;;;1.97;;
16731;SDS011;8484;50.904;9.192;2022-08-25T14:08:03;4.30;;;2.17;;
16731;SDS011;8484;50.904;9.192;2022-08-25T14:10:36;1.90;;;1.80;;
16731;SDS011;8484;50.904;9.192;2022-08-25T14:13:11;3.47;;;2.00;;
16731;SDS011;8484;50.904;9.192;2022-08-25T14:15:40;3.00;;;2.03;;
16731;SDS011;8484;50.904;9.192;2022-08-25T14:18:09;4.77;;;2.17;;
16731;SDS011;8484;50.904;9.192;2022-08-25T14:20:43;3.03;;;1.97;;
16731;SDS011;8484;50.904;9.192;2022-08-25T14:23:14;3.03;;;2.30;;
16731;SDS011;8484;50.904;9.192;2022-08-25T14:25:43;2.23;;;1.70;;
16731;SDS011;8484;50.904;9.192;2022-08-25T14:28:12;4.43;;;2.07;;
16731;SDS011;8484;50.904;9.192;2022-08-25T14:30:41;3.30;;;1.80;;
16731;SDS011;8484;50.904;9.192;2022-08-25T14:33:10;2.27;;;1.93;;
16731;SDS011;8484;50.904;9.192;2022-08-25T14:35:38;2.90;;;2.00;;
16731;SDS011;8484;50.904;9.192;2022-08-25T14:38:07;2.63;;;1.83;;
16731;SDS011;8484;50.904;9.192;2022-08-25T14:40:35;2.40;;;1.90;;
16731;SDS011;8484;50.904;9.192;2022-08-25T14:43:03;5.60;;;1.87;;
16731;SDS011;8484;50.904;9.192;2022-08-25T14:45:32;3.63;;;2.10;;
16731;SDS011;8484;50.904;9.192;2022-08-25T14:48:02;2.53;;;2.33;;
16731;SDS011;8484;50.904;9.192;2022-08-25T14:50:32;2.33;;;2.03;;
16731;SDS011;8484;50.904;9.192;2022-08-25T14:52:59;3.60;;;1.90;;
16731;SDS011;8484;50.904;9.192;2022-08-25T14:55:27;2.57;;;1.80;;
16731;SDS011;8484;50.904;9.192;2022-08-25T14:57:54;2.90;;;2.30;;
16731;SDS011;8484;50.904;9.192;2022-08-25T15:00:21;1.90;;;1.80;;
16731;SDS011;8484;50.904;9.192;2022-08-25T15:02:49;2.97;;;1.80;;
16731;SDS011;8484;50.904;9.192;2022-08-25T15:05:19;6.10;;;2.07;;
16731;SDS011;8484;50.904;9.192;2022-08-25T15:07:48;4.00;;;2.10;;
16731;SDS011;8484;50.904;9.192;2022-08-25T15:10:33;6.37;;;2.13;;
16731;SDS011;8484;50.904;9.192;2022-08-25T15:13:00;3.40;;;2.20;;
16731;SDS011;8484;50.904;9.192;2022-08-25T15:15:27;2.23;;;2.03;;
16731;SDS011;8484;50.904;9.192;2022-08-25T15:17:56;2.17;;;1.90;;
16731;SDS011;8484;50.904;9.192;2022-08-25T15:20:23;2.17;;;1.80;;
16731;SDS011;8484;50.904;9.192;2022-08-25T15:22:50;2.57;;;1.80;;
16731;SDS011;8484;50.904;9.192;2022-08-25T15:25:17;2.87;;;2.03;;
16731;SDS011;8484;50.904;9.192;2022-08-25T15:27:45;2.83;;;1.93;;
16731;SDS011;8484;50.904;9.192;2022-08-25T15:30:13;3.17;;;1.80;;
16731;SDS011;8484;50.904;9.192;2022-08-25T15:32:40;4.90;;;2.00;;
16731;SDS011;8484;50.904;9.192;2022-08-25T15:35:08;2.20;;;1.57;;
16731;SDS011;8484;50.904;9.192;2022-08-25T15:37:35;2.77;;;1.80;;
16731;SDS011;8484;50.904;9.192;2022-08-25T15:40:03;2.87;;;1.90;;
16731;SDS011;8484;50.904;9.192;2022-08-25T15:42:31;2.67;;;1.67;;